createdAt,value
2022-08-09T00:01:43.076Z,21.52
2022-08-09T00:04:25.093Z,21.59
2022-08-09T00:07:10.574Z,21.52
2022-08-09T00:09:39.330Z,21.48
2022-08-09T00:12:08.057Z,21.46
2022-08-09T00:14:38.450Z,21.44
2022-08-09T00:17:08.750Z,21.47
2022-08-09T00:19:56.786Z,21.46
2022-08-09T00:22:25.873Z,21.40
2022-08-09T00:25:04.038Z,21.27
2022-08-09T00:27:42.948Z,21.20
2022-08-09T00:30:25.267Z,21.28
2022-08-09T00:32:55.762Z,21.34
2022-08-09T00:35:24.621Z,21.26
2022-08-09T00:37:53.098Z,21.27
2022-08-09T00:40:22.091Z,21.25
2022-08-09T00:44:10.391Z,21.32
2022-08-09T00:45:53.731Z,21.33
2022-08-09T00:48:23.844Z,21.28
2022-08-09T00:50:53.716Z,21.25
2022-08-09T00:53:23.960Z,21.24
2022-08-09T00:56:04.669Z,21.20
2022-08-09T00:58:35.809Z,21.14
2022-08-09T01:01:16.500Z,21.12
2022-08-09T01:04:13.995Z,21.04
2022-08-09T01:06:59.583Z,20.97
2022-08-09T01:09:35.841Z,20.96
2022-08-09T01:12:15.303Z,20.91
2022-08-09T01:15:01.006Z,20.93
2022-08-09T01:17:38.872Z,20.89
2022-08-09T01:20:11.885Z,20.86
2022-08-09T01:24:01.153Z,20.82
2022-08-09T01:26:11.230Z,20.76
2022-08-09T01:28:48.902Z,20.73
2022-08-09T01:31:40.858Z,20.64
2022-08-09T01:34:13.906Z,20.59
2022-08-09T01:36:46.400Z,20.56
2022-08-09T01:39:17.892Z,20.52
2022-08-09T01:41:55.700Z,20.45
2022-08-09T01:44:32.391Z,20.37
2022-08-09T01:47:03.380Z,20.33
2022-08-09T01:49:38.782Z,20.32
2022-08-09T01:52:14.687Z,20.26
2022-08-09T01:54:48.615Z,20.25
2022-08-09T01:57:21.051Z,20.29
2022-08-09T02:00:00.248Z,20.28
2022-08-09T02:02:46.917Z,20.24
2022-08-09T02:05:20.305Z,20.26
2022-08-09T02:08:39.996Z,20.23
2022-08-09T02:11:02.754Z,20.18
2022-08-09T02:13:55.306Z,20.14
2022-08-09T02:16:59.912Z,20.12
2022-08-09T02:19:38.559Z,20.06
2022-08-09T02:22:37.942Z,20.12
2022-08-09T02:25:17.047Z,20.03
2022-08-09T02:28:00.177Z,20.05
2022-08-09T02:30:37.797Z,20.06
2022-08-09T02:33:14.194Z,20.07
2022-08-09T02:36:01.688Z,20.02
2022-08-09T02:38:35.497Z,20.03
2022-08-09T02:41:10.136Z,20.03
2022-08-09T02:43:54.956Z,19.96
2022-08-09T02:46:28.753Z,19.95
2022-08-09T02:49:04.137Z,19.90
2022-08-09T02:51:40.146Z,19.86
2022-08-09T02:54:14.020Z,19.86
2022-08-09T02:56:51.030Z,19.85
2022-08-09T02:59:26.303Z,19.83
2022-08-09T03:02:12.002Z,19.77
2022-08-09T03:04:42.948Z,19.76
2022-08-09T03:07:14.475Z,19.76
2022-08-09T03:09:54.059Z,19.72
2022-08-09T03:12:25.662Z,19.69
2022-08-09T03:14:54.773Z,19.65
2022-08-09T03:17:26.687Z,19.59
2022-08-09T03:20:03.222Z,19.64
2022-08-09T03:22:41.938Z,19.60
2022-08-09T03:25:26.460Z,19.51
2022-08-09T03:28:04.927Z,19.43
2022-08-09T03:30:39.664Z,19.42
2022-08-09T03:33:17.403Z,19.40
2022-08-09T03:36:12.430Z,19.38
2022-08-09T03:38:42.561Z,19.39
2022-08-09T03:41:14.621Z,19.33
2022-08-09T03:44:03.401Z,19.33
2022-08-09T03:46:33.772Z,19.28
2022-08-09T03:49:08.677Z,19.31
2022-08-09T03:51:43.692Z,19.28
2022-08-09T03:54:32.706Z,19.27
2022-08-09T03:57:18.747Z,19.23
2022-08-09T03:59:54.324Z,19.18
2022-08-09T04:02:26.647Z,19.11
2022-08-09T04:04:57.193Z,19.10
2022-08-09T04:07:47.709Z,19.06
2022-08-09T04:10:20.489Z,19.04
2022-08-09T04:12:51.664Z,19.08
2022-08-09T04:15:38.768Z,19.04
2022-08-09T04:18:17.928Z,18.96
2022-08-09T04:20:47.350Z,18.96
2022-08-09T04:23:17.836Z,18.89
2022-08-09T04:25:51.733Z,18.91
2022-08-09T04:28:31.345Z,18.86
2022-08-09T04:31:07.664Z,18.85
2022-08-09T04:33:51.452Z,18.81
2022-08-09T04:36:27.593Z,18.83
2022-08-09T04:38:59.481Z,18.90
2022-08-09T04:41:32.942Z,18.91
2022-08-09T04:44:07.176Z,18.94
2022-08-09T04:46:58.863Z,18.94
2022-08-09T04:49:52.574Z,18.96
2022-08-09T04:52:26.414Z,18.99
2022-08-09T04:54:57.452Z,19.05
2022-08-09T04:57:58.814Z,19.05
2022-08-09T05:00:16.686Z,19.04
2022-08-09T05:02:48.605Z,19.07
2022-08-09T05:05:31.912Z,19.08
2022-08-09T05:08:08.824Z,19.06
2022-08-09T05:10:38.210Z,19.10
2022-08-09T05:13:06.331Z,19.10
2022-08-09T05:15:47.656Z,19.17
2022-08-09T05:18:38.208Z,19.18
2022-08-09T05:21:13.321Z,19.24
2022-08-09T05:23:57.909Z,19.23
2022-08-09T05:26:36.519Z,19.29
2022-08-09T05:29:17.309Z,19.38
2022-08-09T05:31:56.328Z,19.46
2022-08-09T05:34:30.597Z,19.50
2022-08-09T05:37:04.893Z,19.52
2022-08-09T05:39:36.546Z,19.59
2022-08-09T05:42:17.259Z,19.69
2022-08-09T05:44:51.881Z,19.75
2022-08-09T05:47:21.667Z,19.82
2022-08-09T05:50:24.065Z,19.85
2022-08-09T05:52:40.181Z,19.86
2022-08-09T05:55:21.005Z,20.02
2022-08-09T05:57:56.837Z,20.10
2022-08-09T06:00:28.955Z,20.15
2022-08-09T06:02:58.074Z,20.22
2022-08-09T06:05:31.050Z,20.30
2022-08-09T06:08:19.743Z,20.36
2022-08-09T06:10:55.013Z,20.44
2022-08-09T06:13:25.429Z,20.52
2022-08-09T06:15:56.519Z,20.60
2022-08-09T06:18:25.910Z,20.69
2022-08-09T06:20:57.850Z,20.83
2022-08-09T06:23:58.570Z,20.91
2022-08-09T06:26:20.605Z,20.98
2022-08-09T06:29:00.892Z,21.08
2022-08-09T06:31:39.862Z,21.18
2022-08-09T06:34:23.022Z,21.23
2022-08-09T06:36:59.187Z,21.35
2022-08-09T06:39:57.402Z,21.44
2022-08-09T06:42:19.800Z,21.60
2022-08-09T06:44:51.850Z,21.67
2022-08-09T06:47:22.539Z,21.77
2022-08-09T06:50:15.003Z,21.94
2022-08-09T06:52:45.834Z,21.98
2022-08-09T06:55:16.501Z,21.91
2022-08-09T06:58:03.388Z,22.09
2022-08-09T07:00:53.980Z,22.26
2022-08-09T07:03:28.346Z,22.43
2022-08-09T07:06:03.948Z,22.50
2022-08-09T07:08:37.189Z,22.51
2022-08-09T07:11:07.028Z,22.59
2022-08-09T07:13:45.294Z,22.72
2022-08-09T07:16:42.832Z,22.87
2022-08-09T07:19:15.638Z,22.94
2022-08-09T07:21:55.555Z,22.96
2022-08-09T07:24:32.446Z,23.03
2022-08-09T07:27:10.936Z,23.18
2022-08-09T07:29:56.755Z,23.28
2022-08-09T07:32:32.051Z,23.44
2022-08-09T07:35:10.144Z,23.54
2022-08-09T07:37:43.444Z,23.42
2022-08-09T07:40:17.310Z,23.56
2022-08-09T07:42:54.901Z,23.66
2022-08-09T07:45:37.601Z,23.70
2022-08-09T07:48:29.652Z,23.81
2022-08-09T07:51:09.460Z,23.84
2022-08-09T07:54:06.976Z,24.00
2022-08-09T07:56:38.836Z,24.08
2022-08-09T07:59:24.937Z,24.14
2022-08-09T08:01:55.826Z,24.21
2022-08-09T08:04:31.749Z,24.44
2022-08-09T08:07:15.034Z,24.58
2022-08-09T08:09:59.767Z,24.64
2022-08-09T08:12:37.080Z,24.75
2022-08-09T08:15:14.208Z,24.80
2022-08-09T08:17:55.057Z,24.71
2022-08-09T08:20:33.183Z,24.85
2022-08-09T08:23:15.852Z,24.89
2022-08-09T08:25:50.369Z,24.97
2022-08-09T08:28:35.439Z,24.97
2022-08-09T08:31:13.947Z,25.20
2022-08-09T08:33:52.313Z,25.37
2022-08-09T08:36:28.713Z,25.56
2022-08-09T08:38:58.057Z,25.51
2022-08-09T08:41:38.705Z,25.65
2022-08-09T08:44:15.520Z,25.74
2022-08-09T08:46:59.494Z,25.71
2022-08-09T08:49:38.542Z,25.94
2022-08-09T08:52:34.981Z,26.10
2022-08-09T08:55:05.673Z,26.19
2022-08-09T08:57:37.624Z,26.41
2022-08-09T09:00:17.078Z,26.37
2022-08-09T09:02:52.534Z,26.56
2022-08-09T09:05:59.020Z,26.56
2022-08-09T09:08:30.031Z,26.52
2022-08-09T09:11:04.048Z,26.67
2022-08-09T09:13:55.326Z,26.75
2022-08-09T09:16:32.336Z,26.82
2022-08-09T09:19:22.579Z,26.91
2022-08-09T09:22:05.253Z,27.02
2022-08-09T09:24:43.221Z,26.84
2022-08-09T09:28:04.077Z,27.07
2022-08-09T09:30:28.747Z,27.19
2022-08-09T09:33:16.919Z,27.23
2022-08-09T09:36:02.884Z,27.34
2022-08-09T09:38:48.655Z,27.44
2022-08-09T09:41:49.502Z,27.36
2022-08-09T09:44:27.559Z,27.41
2022-08-09T09:47:08.551Z,27.43
2022-08-09T09:50:07.498Z,27.52
2022-08-09T09:52:36.748Z,27.63
2022-08-09T09:55:27.686Z,27.92
2022-08-09T09:58:19.048Z,28.09
2022-08-09T10:00:53.952Z,28.10
2022-08-09T10:03:43.429Z,28.24
2022-08-09T10:06:13.179Z,28.02
2022-08-09T10:08:54.774Z,27.94
2022-08-09T10:12:00.042Z,27.93
2022-08-09T10:14:33.231Z,27.81
2022-08-09T10:17:38.690Z,27.99
2022-08-09T10:20:00.602Z,28.19
2022-08-09T10:22:34.225Z,28.57
2022-08-09T10:25:11.230Z,28.68
2022-08-09T10:27:45.226Z,28.51
2022-08-09T10:34:08.940Z,28.60
2022-08-09T10:36:09.381Z,28.78
2022-08-09T10:38:57.110Z,28.80
2022-08-09T10:41:28.615Z,28.86
2022-08-09T10:43:59.786Z,29.07
2022-08-09T10:48:14.273Z,29.12
2022-08-09T10:50:15.711Z,29.14
2022-08-09T10:53:10.121Z,29.00
2022-08-09T10:55:58.477Z,28.99
2022-08-09T10:58:33.932Z,28.71
2022-08-09T11:03:02.437Z,28.79
2022-08-09T11:04:29.915Z,28.76
2022-08-09T11:07:57.464Z,28.89
2022-08-09T11:10:59.015Z,29.06
2022-08-09T11:13:49.981Z,28.89
2022-08-09T11:16:37.724Z,28.93
2022-08-09T11:19:09.707Z,29.15
2022-08-09T11:22:10.852Z,29.30
2022-08-09T11:25:08.939Z,29.40
2022-08-09T11:28:02.985Z,29.38
2022-08-09T11:30:36.077Z,29.16
2022-08-09T11:33:07.123Z,29.15
2022-08-09T11:35:49.079Z,29.31
2022-08-09T11:38:32.701Z,29.23
2022-08-09T11:41:06.176Z,29.19
2022-08-09T11:43:44.097Z,29.36
2022-08-09T11:46:12.410Z,29.41
2022-08-09T11:48:52.707Z,29.43
2022-08-09T11:53:16.261Z,29.43
2022-08-09T11:54:27.887Z,29.55
2022-08-09T11:57:56.874Z,29.63
2022-08-09T12:00:28.159Z,29.59
2022-08-09T12:02:58.176Z,29.41
2022-08-09T12:05:42.142Z,29.41
2022-08-09T12:08:21.489Z,29.38
2022-08-09T12:10:55.001Z,29.40
2022-08-09T12:14:07.726Z,29.46
2022-08-09T12:16:37.871Z,29.61
2022-08-09T12:19:09.546Z,29.57
2022-08-09T12:21:50.571Z,29.67
2022-08-09T12:24:25.001Z,29.60
2022-08-09T12:29:11.581Z,29.68
2022-08-09T12:30:03.990Z,29.77
2022-08-09T12:32:48.595Z,29.82
2022-08-09T12:35:19.183Z,29.89
2022-08-09T12:37:52.225Z,30.01
2022-08-09T12:40:23.150Z,29.85
2022-08-09T12:42:55.534Z,29.75
2022-08-09T12:45:25.216Z,29.65
2022-08-09T12:48:04.080Z,29.59
2022-08-09T12:50:32.512Z,29.65
2022-08-09T12:53:09.351Z,29.59
2022-08-09T12:56:15.442Z,29.64
2022-08-09T12:58:42.584Z,29.63
2022-08-09T13:01:26.591Z,29.60
2022-08-09T13:04:01.925Z,29.52
2022-08-09T13:06:34.725Z,29.43
2022-08-09T13:09:09.764Z,29.56
2022-08-09T13:11:42.515Z,29.46
2022-08-09T13:14:47.408Z,29.42
2022-08-09T13:17:44.123Z,29.42
2022-08-09T13:20:14.373Z,29.27
2022-08-09T13:23:01.345Z,29.41
2022-08-09T13:25:42.469Z,29.55
2022-08-09T13:28:24.558Z,29.50
2022-08-09T13:32:17.248Z,29.42
2022-08-09T13:34:02.744Z,29.55
2022-08-09T13:36:40.392Z,29.65
2022-08-09T13:41:19.070Z,29.62
2022-08-09T13:42:02.813Z,29.70
2022-08-09T13:44:32.361Z,29.73
2022-08-09T13:47:29.356Z,29.63
2022-08-09T13:49:57.146Z,29.64
2022-08-09T13:52:30.239Z,29.63
2022-08-09T13:55:02.101Z,29.83
2022-08-09T13:57:39.622Z,29.84
2022-08-09T14:00:15.573Z,29.83
2022-08-09T14:03:02.753Z,29.96
2022-08-09T14:05:58.557Z,29.93
2022-08-09T14:08:28.201Z,29.80
2022-08-09T14:10:57.048Z,29.61
2022-08-09T14:14:14.695Z,29.72
2022-08-09T14:16:16.792Z,29.67
2022-08-09T14:18:51.737Z,29.60
2022-08-09T14:21:22.531Z,29.62
2022-08-09T14:23:56.633Z,29.73
2022-08-09T14:26:31.729Z,29.53
2022-08-09T14:29:03.538Z,29.64
2022-08-09T14:31:49.850Z,29.62
2022-08-09T14:34:27.546Z,29.72
2022-08-09T14:37:00.538Z,29.76
2022-08-09T14:39:45.165Z,29.72
2022-08-09T14:42:28.950Z,29.83
2022-08-09T14:45:00.879Z,29.81
2022-08-09T14:47:46.281Z,29.87
2022-08-09T14:50:18.827Z,29.68
2022-08-09T14:52:47.773Z,29.75
2022-08-09T14:55:20.389Z,29.78
2022-08-09T14:57:49.403Z,29.71
2022-08-09T15:00:18.267Z,29.85
2022-08-09T15:02:47.478Z,29.78
2022-08-09T15:05:21.680Z,29.65
2022-08-09T15:07:55.972Z,29.67
2022-08-09T15:10:25.426Z,29.73
2022-08-09T15:12:53.888Z,29.83
2022-08-09T15:15:23.083Z,29.91
2022-08-09T15:17:53.270Z,29.64
2022-08-09T15:21:55.922Z,29.59
2022-08-09T15:24:02.198Z,29.58
2022-08-09T15:26:00.626Z,29.54
2022-08-09T15:28:28.848Z,29.66
2022-08-09T15:31:10.219Z,29.66
2022-08-09T15:34:18.007Z,29.75
2022-08-09T15:36:33.248Z,29.73
2022-08-09T15:39:02.003Z,29.67
2022-08-09T15:41:31.708Z,29.58
2022-08-09T15:44:01.742Z,29.79
2022-08-09T15:46:34.050Z,29.90
2022-08-09T15:49:20.584Z,29.75
2022-08-09T15:52:05.127Z,29.62
2022-08-09T15:54:44.790Z,29.66
2022-08-09T15:57:19.013Z,29.72
2022-08-09T15:59:57.614Z,29.69
2022-08-09T16:02:27.103Z,29.48
2022-08-09T16:04:55.651Z,29.61
2022-08-09T16:07:25.814Z,29.58
2022-08-09T16:10:04.344Z,29.58
2022-08-09T16:12:33.911Z,29.61
2022-08-09T16:15:05.556Z,29.62
2022-08-09T16:17:53.724Z,29.61
2022-08-09T16:20:30.158Z,29.46
2022-08-09T16:23:01.383Z,29.51
2022-08-09T16:25:39.683Z,29.51
2022-08-09T16:28:12.020Z,29.61
2022-08-09T16:30:44.723Z,29.45
2022-08-09T16:33:27.586Z,29.37
2022-08-09T16:36:03.047Z,29.45
2022-08-09T16:38:35.497Z,29.43
2022-08-09T16:41:03.926Z,29.44
2022-08-09T16:43:32.830Z,29.56
2022-08-09T16:46:00.868Z,29.47
2022-08-09T16:48:39.387Z,29.27
2022-08-09T16:51:19.019Z,29.14
2022-08-09T16:54:16.603Z,29.19
2022-08-09T16:56:37.822Z,29.09
2022-08-09T16:59:17.476Z,29.03
2022-08-09T17:01:50.728Z,29.17
2022-08-09T17:04:26.148Z,29.29
2022-08-09T17:08:44.167Z,29.30
2022-08-09T17:09:47.876Z,29.19
2022-08-09T17:12:16.938Z,29.09
2022-08-09T17:14:46.346Z,28.90
2022-08-09T17:17:27.016Z,28.92
2022-08-09T17:20:32.507Z,29.08
2022-08-09T17:22:50.411Z,28.91
2022-08-09T17:25:23.300Z,29.02
2022-08-09T17:27:54.415Z,29.11
2022-08-09T17:30:25.884Z,29.10
2022-08-09T17:33:00.732Z,29.05
2022-08-09T17:35:41.376Z,28.86
2022-08-09T17:38:34.295Z,28.89
2022-08-09T17:41:02.835Z,28.77
2022-08-09T17:43:35.781Z,28.80
2022-08-09T17:46:09.266Z,28.63
2022-08-09T17:48:51.777Z,28.69
2022-08-09T17:51:21.784Z,28.66
2022-08-09T17:53:55.065Z,28.56
2022-08-09T17:56:29.274Z,28.67
2022-08-09T17:59:09.014Z,28.68
2022-08-09T18:01:58.225Z,28.61
2022-08-09T18:04:26.479Z,28.56
2022-08-09T18:06:55.842Z,28.54
2022-08-09T18:09:40.356Z,28.64
2022-08-09T18:12:16.980Z,28.47
2022-08-09T18:14:53.648Z,28.37
2022-08-09T18:18:01.450Z,28.39
2022-08-09T18:20:57.915Z,28.17
2022-08-09T18:23:05.155Z,28.33
2022-08-09T18:25:52.972Z,28.25
2022-08-09T18:30:39.734Z,28.13
2022-08-09T18:31:24.685Z,27.97
2022-08-09T18:34:00.683Z,28.10
2022-08-09T18:36:32.352Z,28.04
2022-08-09T18:39:06.887Z,28.02
2022-08-09T18:41:42.210Z,27.94
2022-08-09T18:44:23.006Z,28.00
2022-08-09T18:47:08.048Z,27.94
2022-08-09T18:49:41.493Z,27.89
2022-08-09T18:52:18.733Z,27.85
2022-08-09T18:54:55.595Z,27.82
2022-08-09T18:57:42.841Z,27.68
2022-08-09T19:00:16.598Z,27.67
2022-08-09T19:02:51.169Z,27.63
2022-08-09T19:05:41.476Z,27.64
2022-08-09T19:08:18.340Z,27.69
2022-08-09T19:10:47.838Z,27.56
2022-08-09T19:13:20.448Z,27.54
2022-08-09T19:15:55.835Z,27.47
2022-08-09T19:18:33.036Z,27.44
2022-08-09T19:21:03.316Z,27.38
2022-08-09T19:24:37.438Z,27.35
2022-08-09T19:26:29.252Z,27.29
2022-08-09T19:29:01.773Z,27.23
2022-08-09T19:31:45.305Z,27.16
2022-08-09T19:34:22.226Z,27.14
2022-08-09T19:36:52.079Z,27.11
2022-08-09T19:39:43.539Z,27.05
2022-08-09T19:42:08.901Z,26.99
2022-08-09T19:44:43.187Z,26.93
2022-08-09T19:47:12.568Z,26.89
2022-08-09T19:50:09.906Z,26.81
2022-08-09T19:52:29.799Z,26.72
2022-08-09T19:54:59.044Z,26.63
2022-08-09T19:57:27.092Z,26.58
2022-08-09T19:59:59.354Z,26.53
2022-08-09T20:04:11.033Z,26.50
2022-08-09T20:05:28.594Z,26.46
2022-08-09T20:08:09.413Z,26.38
2022-08-09T20:10:45.899Z,26.35
2022-08-09T20:13:20.594Z,26.31
2022-08-09T20:16:33.028Z,26.25
2022-08-09T20:18:39.781Z,26.23
2022-08-09T20:21:40.674Z,26.13
2022-08-09T20:24:29.183Z,26.10
2022-08-09T20:27:02.064Z,26.06
2022-08-09T20:29:37.323Z,26.04
2022-08-09T20:32:31.175Z,26.01
2022-08-09T20:34:57.622Z,25.95
2022-08-09T20:38:19.471Z,25.95
2022-08-09T20:40:19.435Z,25.92
2022-08-09T20:43:12.076Z,25.93
2022-08-09T20:46:00.566Z,25.89
2022-08-09T20:48:31.844Z,25.88
2022-08-09T20:51:03.143Z,25.87
2022-08-09T20:53:36.587Z,25.85
2022-08-09T20:56:20.720Z,25.81
2022-08-09T20:58:54.653Z,25.72
2022-08-09T21:01:34.843Z,25.64
2022-08-09T21:05:51.899Z,25.51
2022-08-09T21:07:11.291Z,25.42
2022-08-09T21:09:55.676Z,25.33
2022-08-09T21:15:15.781Z,25.17
2022-08-09T21:18:24.061Z,25.14
2022-08-09T21:20:35.580Z,25.04
2022-08-09T21:23:09.208Z,25.06
2022-08-09T21:25:57.204Z,24.96
2022-08-09T21:28:33.383Z,24.91
2022-08-09T21:31:17.732Z,24.89
2022-08-09T21:33:51.429Z,24.88
2022-08-09T21:36:23.040Z,24.88
2022-08-09T21:38:57.675Z,24.89
2022-08-09T21:42:04.788Z,24.85
2022-08-09T21:44:34.138Z,24.73
2022-08-09T21:47:05.680Z,24.67
2022-08-09T21:49:40.560Z,24.58
2022-08-09T21:52:15.010Z,24.54
2022-08-09T21:54:49.590Z,24.50
2022-08-09T21:57:39.489Z,24.42
2022-08-09T22:00:25.886Z,24.40
2022-08-09T22:02:59.125Z,24.37
2022-08-09T22:05:37.703Z,24.34
2022-08-09T22:08:13.706Z,24.29
2022-08-09T22:11:26.442Z,24.21
2022-08-09T22:13:34.413Z,24.18
2022-08-09T22:16:07.608Z,24.18
2022-08-09T22:18:38.002Z,24.16
2022-08-09T22:21:09.973Z,24.07
2022-08-09T22:23:59.513Z,24.01
2022-08-09T22:26:35.049Z,24.01
2022-08-09T22:29:08.736Z,23.97
2022-08-09T22:31:37.175Z,23.88
2022-08-09T22:34:12.160Z,23.81
2022-08-09T22:36:46.101Z,23.74
2022-08-09T22:39:38.691Z,23.77
2022-08-09T22:42:06.055Z,23.79
2022-08-09T22:44:44.975Z,23.81
2022-08-09T22:48:14.264Z,23.86
2022-08-09T22:54:57.738Z,23.95
2022-08-09T22:57:35.492Z,24.02
2022-08-09T23:00:06.888Z,24.07
2022-08-09T23:02:40.177Z,24.09
2022-08-09T23:05:13.372Z,24.12
2022-08-09T23:08:21.132Z,24.13
2022-08-09T23:10:50.005Z,24.13
2022-08-09T23:13:19.351Z,24.22
2022-08-09T23:16:02.991Z,24.20
2022-08-09T23:18:57.011Z,24.00
2022-08-09T23:21:30.058Z,24.02
2022-08-09T23:24:06.530Z,24.09
2022-08-09T23:26:35.831Z,24.06
2022-08-09T23:29:05.861Z,24.00
2022-08-09T23:31:34.246Z,23.92
2022-08-09T23:34:04.019Z,24.01
2022-08-09T23:36:32.984Z,23.97
2022-08-09T23:39:01.669Z,24.12
2022-08-09T23:41:29.985Z,24.10
2022-08-09T23:43:59.960Z,24.14
2022-08-09T23:46:30.168Z,24.06
2022-08-09T23:48:58.893Z,23.99
2022-08-09T23:51:28.132Z,24.06
2022-08-09T23:54:02.717Z,24.14
2022-08-09T23:56:39.523Z,24.18
2022-08-09T23:59:21.018Z,24.16
